Time;durP1;ratioP1;P1;durP2;ratioP2;P2;SDS_P1;SDS_P2;PMS_P1;PMS_P2;Temp;Humidity;BMP_temperature;BMP_pressure;BME280_temperature;BME280_humidity;BME280_pressure;Samples;Min_cycle;Max_cycle;Signal;HPM_P1;HPM_P2
2022/12/26 00:00:10;;;;;;;19.33;14.60;;;;;;;;;;10318582;28;20044;-61
2022/12/26 00:05:09;;;;;;;23.25;14.80;;;;;;;;;;10318053;28;20084;-61
2022/12/26 00:10:09;;;;;;;21.67;13.50;;;;;;;;;;10317679;28;20075;-61
2022/12/26 00:15:07;;;;;;;13.98;9.43;;;;;;;;;;10317584;28;20072;-61
2022/12/26 00:20:06;;;;;;;11.13;8.13;;;;;;;;;;10317552;28;20055;-61
2022/12/26 00:25:04;;;;;;;14.45;9.13;;;;;;;;;;10316659;28;20513;-61
2022/12/26 00:30:04;;;;;;;11.60;8.63;;;;;;;;;;10316296;28;20072;-61
2022/12/26 00:35:02;;;;;;;15.52;10.38;;;;;;;;;;10317135;28;20078;-61
2022/12/26 00:40:00;;;;;;;9.45;8.35;;;;;;;;;;10316713;28;20076;-61
2022/12/26 00:44:59;;;;;;;11.00;8.70;;;;;;;;;;10315894;28;20080;-61
2022/12/26 00:49:58;;;;;;;10.50;7.93;;;;;;;;;;10315713;28;20114;-61
2022/12/26 00:55:12;;;;;;;11.83;8.27;;;;;;;;;;10315853;28;20040;-61
2022/12/26 01:00:10;;;;;;;11.00;8.35;;;;;;;;;;10316160;28;20048;-61
2022/12/26 01:05:11;;;;;;;10.55;7.80;;;;;;;;;;10316581;28;20083;-60
2022/12/26 01:10:11;;;;;;;12.10;7.95;;;;;;;;;;10315544;28;20052;-61
2022/12/26 01:15:10;;;;;;;14.90;8.68;;;;;;;;;;10316296;28;20048;-61
2022/12/26 01:20:10;;;;;;;10.95;8.00;;;;;;;;;;10316244;28;20045;-61
2022/12/26 01:25:08;;;;;;;14.15;8.65;;;;;;;;;;10316060;28;20072;-61
2022/12/26 01:30:07;;;;;;;13.15;9.45;;;;;;;;;;10320735;28;20048;-61
2022/12/26 01:35:06;;;;;;;14.30;9.40;;;;;;;;;;10324254;28;20075;-61
2022/12/26 01:40:06;;;;;;;18.80;16.80;;;;;;;;;;10322697;28;20068;-61
2022/12/26 01:45:06;;;;;;;29.08;19.55;;;;;;;;;;10323629;28;20490;-60
2022/12/26 01:50:05;;;;;;;26.27;16.30;;;;;;;;;;10323359;28;20052;-62
2022/12/26 01:55:03;;;;;;;25.77;20.83;;;;;;;;;;10322886;28;20052;-62
2022/12/26 02:00:04;;;;;;;19.02;14.32;;;;;;;;;;10323168;28;20521;-61
2022/12/26 02:10:25;;;;;;;;;;;;;;;;;;10322911;28;20041;-61
2022/12/26 02:15:25;;;;;;;12.50;9.68;;;;;;;;;;10322429;28;19962;-61
2022/12/26 02:20:24;;;;;;;12.10;8.63;;;;;;;;;;10322436;28;20051;-61
2022/12/26 02:25:40;;;;;;;26.70;20.60;;;;;;;;;;10322186;28;20075;-61
2022/12/26 02:30:44;;;;;;;12.52;10.88;;;;;;;;;;10322443;28;20040;-61
2022/12/26 02:35:49;;;;;;;18.80;11.60;;;;;;;;;;10321584;28;20048;-62
2022/12/26 02:40:53;;;;;;;9.68;8.68;;;;;;;;;;10320561;28;20139;-61
2022/12/26 03:17:53;;;;;;;9.45;8.45;;;;;;;;;;10320159;28;20052;-60
2022/12/26 03:22:54;;;;;;;9.77;7.90;;;;;;;;;;10320316;28;20080;-60
2022/12/26 03:27:53;;;;;;;9.25;7.63;;;;;;;;;;10319945;28;20099;-60
2022/12/26 03:32:54;;;;;;;12.43;8.18;;;;;;;;;;10319724;28;20087;-61
2022/12/26 03:37:53;;;;;;;9.20;8.13;;;;;;;;;;10279416;28;20053;-61
2022/12/26 04:20:08;;;;;;;13.35;10.68;;;;;;;;;;10317404;28;20040;-62
2022/12/26 04:46:40;;;;;;;15.23;10.88;;;;;;;;;;10297313;28;20500;-61
2022/12/26 04:51:40;;;;;;;12.95;9.27;;;;;;;;;;10316251;28;20075;-61
2022/12/26 04:56:39;;;;;;;9.68;8.60;;;;;;;;;;10316680;28;20072;-61
2022/12/26 05:12:08;;;;;;;10.02;9.00;;;;;;;;;;10315877;28;20079;-62
2022/12/26 05:38:15;;;;;;;26.98;19.00;;;;;;;;;;10314542;28;20048;-62
2022/12/26 05:43:13;;;;;;;13.40;10.45;;;;;;;;;;10315397;28;20049;-59
2022/12/26 05:48:11;;;;;;;11.25;10.13;;;;;;;;;;10315277;28;20530;-61
2022/12/26 05:53:09;;;;;;;10.98;8.60;;;;;;;;;;10314592;28;20579;-62
2022/12/26 05:58:09;;;;;;;23.35;13.95;;;;;;;;;;10314714;28;20083;-61
2022/12/26 06:03:07;;;;;;;35.15;16.63;;;;;;;;;;10314029;28;20072;-62
2022/12/26 06:08:06;;;;;;;270.30;123.57;;;;;;;;;;10314485;28;20451;-62
2022/12/26 06:13:04;;;;;;;37.38;25.63;;;;;;;;;;10314317;28;20060;-61
2022/12/26 06:18:03;;;;;;;21.17;13.63;;;;;;;;;;10322145;28;20418;-60
2022/12/26 06:23:03;;;;;;;19.40;15.13;;;;;;;;;;10322021;28;20147;-60
2022/12/26 06:28:01;;;;;;;12.60;9.35;;;;;;;;;;10321693;28;20076;-60
2022/12/26 06:32:59;;;;;;;12.38;8.32;;;;;;;;;;10320463;28;20037;-61
2022/12/26 06:37:59;;;;;;;11.48;9.23;;;;;;;;;;10321126;28;20080;-60
2022/12/26 06:42:57;;;;;;;10.35;8.75;;;;;;;;;;10320613;28;20080;-61
2022/12/26 06:47:55;;;;;;;11.93;8.73;;;;;;;;;;10320414;28;20091;-60
2022/12/26 06:52:53;;;;;;;12.13;10.95;;;;;;;;;;10321152;28;20690;-60
2022/12/26 06:57:53;;;;;;;12.98;9.15;;;;;;;;;;10321850;28;20052;-60
2022/12/26 07:02:51;;;;;;;10.73;9.60;;;;;;;;;;10318559;28;20079;-61
2022/12/26 07:07:52;;;;;;;10.93;9.27;;;;;;;;;;10320336;28;20075;-60
2022/12/26 07:12:51;;;;;;;17.90;13.45;;;;;;;;;;10318909;28;20048;-61
2022/12/26 07:17:51;;;;;;;15.65;13.50;;;;;;;;;;10320685;28;20083;-60
2022/12/26 07:22:49;;;;;;;14.10;10.85;;;;;;;;;;10320347;28;20080;-59
2022/12/26 07:27:48;;;;;;;14.20;11.00;;;;;;;;;;10319427;28;20064;-60
2022/12/26 07:32:46;;;;;;;11.40;9.35;;;;;;;;;;10319563;28;20032;-60
2022/12/26 07:37:45;;;;;;;13.70;9.50;;;;;;;;;;10317552;28;20071;-60
2022/12/26 07:42:44;;;;;;;32.55;26.38;;;;;;;;;;10317895;28;20088;-61
2022/12/26 07:47:42;;;;;;;55.30;43.05;;;;;;;;;;10316500;28;20072;-61
2022/12/26 07:52:40;;;;;;;79.63;60.65;;;;;;;;;;10316376;28;20055;-60
2022/12/26 07:57:40;;;;;;;42.95;38.15;;;;;;;;;;10314623;28;20079;-61
2022/12/26 08:02:47;;;;;;;24.98;20.00;;;;;;;;;;10318056;28;20045;-61
2022/12/26 08:07:46;;;;;;;20.15;16.77;;;;;;;;;;10314423;28;20080;-60
2022/12/26 08:12:46;;;;;;;17.77;13.80;;;;;;;;;;10317675;28;20044;-61
2022/12/26 08:17:44;;;;;;;16.13;13.02;;;;;;;;;;10317019;28;20058;-61
2022/12/26 08:22:42;;;;;;;18.67;14.45;;;;;;;;;;10316771;28;20078;-61
2022/12/26 08:27:40;;;;;;;21.60;16.33;;;;;;;;;;10316549;28;20494;-61
2022/12/26 08:32:40;;;;;;;27.90;21.58;;;;;;;;;;10317176;28;20060;-61
2022/12/26 08:37:43;;;;;;;15.85;13.95;;;;;;;;;;10298932;28;20410;-61
2022/12/26 08:42:41;;;;;;;17.25;14.40;;;;;;;;;;10316602;28;20051;-59
2022/12/26 08:48:01;;;;;;;16.13;13.73;;;;;;;;;;10316099;28;20095;-60
2022/12/26 08:53:00;;;;;;;13.57;12.10;;;;;;;;;;10313799;28;20418;-61
2022/12/26 08:57:58;;;;;;;14.30;10.98;;;;;;;;;;10312881;28;20114;-61
2022/12/26 09:02:56;;;;;;;13.20;10.60;;;;;;;;;;10314688;28;20148;-61
2022/12/26 09:07:56;;;;;;;12.70;10.77;;;;;;;;;;10309770;28;20076;-61
2022/12/26 09:12:54;;;;;;;12.55;9.35;;;;;;;;;;10314356;28;20071;-61
2022/12/26 09:17:53;;;;;;;10.75;9.15;;;;;;;;;;10315723;28;20069;-61
2022/12/26 09:22:51;;;;;;;15.63;13.00;;;;;;;;;;10303207;28;20071;-61
2022/12/26 09:27:53;;;;;;;11.68;9.45;;;;;;;;;;10311380;28;20084;-61
2022/12/26 09:32:56;;;;;;;40.13;32.00;;;;;;;;;;10314398;28;20056;-62
2022/12/26 09:37:54;;;;;;;34.65;27.30;;;;;;;;;;10308276;28;20064;-61
2022/12/26 09:43:04;;;;;;;37.75;32.35;;;;;;;;;;10314552;28;20076;-61
2022/12/26 09:48:06;;;;;;;34.90;30.02;;;;;;;;;;10313009;28;20553;-61
2022/12/26 09:53:06;;;;;;;27.45;20.98;;;;;;;;;;10313726;28;20072;-62
2022/12/26 09:58:09;;;;;;;18.08;13.57;;;;;;;;;;10318400;28;20070;-60
2022/12/26 10:03:09;;;;;;;20.65;15.85;;;;;;;;;;10319540;28;20060;-61
2022/12/26 10:08:14;;;;;;;22.05;17.20;;;;;;;;;;10321076;28;20072;-61
2022/12/26 10:13:18;;;;;;;24.00;18.15;;;;;;;;;;10319651;28;20068;-61
2022/12/26 10:18:20;;;;;;;29.13;19.98;;;;;;;;;;10320077;28;20564;-62
2022/12/26 10:23:30;;;;;;;30.23;21.38;;;;;;;;;;10318405;28;20083;-61
2022/12/26 10:28:32;;;;;;;60.15;43.35;;;;;;;;;;10296684;28;20072;-61
2022/12/26 10:33:35;;;;;;;33.55;21.33;;;;;;;;;;10319199;28;20087;-61
2022/12/26 10:38:36;;;;;;;46.60;33.58;;;;;;;;;;10318927;28;20044;-61
2022/12/26 10:43:36;;;;;;;20.63;11.82;;;;;;;;;;10317906;28;20055;-61
2022/12/26 10:48:34;;;;;;;14.20;9.82;;;;;;;;;;10314919;28;20480;-61
2022/12/26 10:53:41;;;;;;;10.57;9.10;;;;;;;;;;10318140;28;20395;-61
2022/12/26 10:58:41;;;;;;;17.23;13.63;;;;;;;;;;10318422;28;20033;-60
2022/12/26 11:03:53;;;;;;;10.57;8.43;;;;;;;;;;10317752;28;20087;-60
2022/12/26 11:08:51;;;;;;;17.95;14.27;;;;;;;;;;10316065;28;20072;-61
2022/12/26 11:13:53;;;;;;;14.40;11.13;;;;;;;;;;10301659;28;20044;-62
2022/12/26 11:18:58;;;;;;;15.77;10.82;;;;;;;;;;10298233;28;20072;-61
2022/12/26 11:24:11;;;;;;;24.10;16.20;;;;;;;;;;10318906;28;20071;-61
2022/12/26 11:29:12;;;;;;;22.75;17.15;;;;;;;;;;10323972;28;20075;-61
2022/12/26 11:34:15;;;;;;;26.38;19.42;;;;;;;;;;10306719;28;20162;-60
2022/12/26 11:39:20;;;;;;;14.05;11.07;;;;;;;;;;10317452;28;20417;-60
2022/12/26 11:44:22;;;;;;;21.88;17.52;;;;;;;;;;10317407;28;20056;-61
2022/12/26 11:49:25;;;;;;;18.52;14.45;;;;;;;;;;10317727;28;20095;-60
2022/12/26 11:54:26;;;;;;;23.30;17.15;;;;;;;;;;10317892;28;20070;-60
2022/12/26 11:59:25;;;;;;;18.80;15.40;;;;;;;;;;10314441;28;20094;-60
2022/12/26 12:04:24;;;;;;;15.57;11.93;;;;;;;;;;10315762;28;20060;-61
2022/12/26 12:09:27;;;;;;;16.48;13.95;;;;;;;;;;10315298;28;20084;-60
2022/12/26 12:14:35;;;;;;;15.48;12.30;;;;;;;;;;10309215;28;20091;-60
2022/12/26 12:19:48;;;;;;;33.97;24.50;;;;;;;;;;10297288;28;20072;-60
2022/12/26 12:24:52;;;;;;;28.20;19.77;;;;;;;;;;10305331;28;20071;-59
2022/12/26 12:29:59;;;;;;;17.03;12.47;;;;;;;;;;10310413;28;20177;-60
2022/12/26 12:35:06;;;;;;;17.00;12.50;;;;;;;;;;10310798;28;20075;-60
2022/12/26 12:40:07;;;;;;;27.90;19.77;;;;;;;;;;10315417;28;20498;-60
2022/12/26 12:45:16;;;;;;;16.23;13.30;;;;;;;;;;10300443;28;20083;-59
2022/12/26 12:50:20;;;;;;;26.48;18.75;;;;;;;;;;10271395;28;20526;-60
2022/12/26 12:55:39;;;;;;;64.57;38.95;;;;;;;;;;10246958;28;20069;-60
2022/12/26 13:00:41;;;;;;;34.40;24.23;;;;;;;;;;10245910;28;20474;-61
2022/12/26 13:05:44;;;;;;;15.57;12.65;;;;;;;;;;10274558;28;20049;-60
2022/12/26 13:10:46;;;;;;;16.67;13.07;;;;;;;;;;10268180;28;20099;-61
2022/12/26 13:15:47;;;;;;;15.35;12.60;;;;;;;;;;10264739;28;20092;-62
2022/12/26 13:20:48;;;;;;;10.32;8.43;;;;;;;;;;10269866;28;20072;-61
2022/12/26 13:25:49;;;;;;;18.25;12.20;;;;;;;;;;10274047;28;20056;-61
2022/12/26 13:30:52;;;;;;;16.67;12.95;;;;;;;;;;10266695;28;20072;-61
2022/12/26 13:35:55;;;;;;;17.63;13.30;;;;;;;;;;10267704;28;20104;-61
2022/12/26 13:40:56;;;;;;;20.38;15.73;;;;;;;;;;10270432;28;20065;-61
2022/12/26 13:45:56;;;;;;;20.50;15.60;;;;;;;;;;10266955;28;20076;-60
2022/12/26 13:50:56;;;;;;;43.28;28.63;;;;;;;;;;10308801;28;20079;-62
2022/12/26 13:55:55;;;;;;;32.38;18.90;;;;;;;;;;10314124;28;20521;-61
2022/12/26 14:00:55;;;;;;;22.85;18.65;;;;;;;;;;10311280;28;20079;-60
2022/12/26 14:06:06;;;;;;;30.42;22.75;;;;;;;;;;10306193;28;20068;-62
2022/12/26 14:11:11;;;;;;;20.98;17.58;;;;;;;;;;10313355;28;20064;-61
2022/12/26 14:16:14;;;;;;;30.33;25.60;;;;;;;;;;10314684;28;20064;-61
2022/12/26 14:21:22;;;;;;;36.42;30.25;;;;;;;;;;10315217;28;20407;-61
2022/12/26 14:26:27;;;;;;;49.65;37.75;;;;;;;;;;10314051;28;20083;-61
2022/12/26 14:31:30;;;;;;;75.57;52.45;;;;;;;;;;10316852;28;20070;-60
2022/12/26 14:36:34;;;;;;;53.88;37.55;;;;;;;;;;10317631;28;20520;-60
2022/12/26 14:47:05;;;;;;;62.95;47.80;;;;;;;;;;10320093;28;20115;-60
2022/12/26 14:52:18;;;;;;;71.70;50.22;;;;;;;;;;10311604;28;20068;-60
2022/12/26 14:57:35;;;;;;;63.30;42.72;;;;;;;;;;10316018;28;20060;-61
2022/12/26 15:02:35;;;;;;;68.00;49.47;;;;;;;;;;10319031;28;20072;-59
2022/12/26 15:07:51;;;;;;;70.50;49.22;;;;;;;;;;10317618;28;20083;-60
2022/12/26 15:13:04;;;;;;;53.83;42.80;;;;;;;;;;10307520;28;20087;-60
2022/12/26 15:18:20;;;;;;;66.70;52.20;;;;;;;;;;10315453;28;20071;-61
2022/12/26 15:23:33;;;;;;;96.28;69.28;;;;;;;;;;10312177;28;20076;-59
2022/12/26 15:28:57;;;;;;;94.53;68.32;;;;;;;;;;10315014;28;20076;-59
2022/12/26 15:33:59;;;;;;;55.53;45.72;;;;;;;;;;10316022;28;20106;-59
2022/12/26 15:39:00;;;;;;;50.10;39.78;;;;;;;;;;10315008;28;20510;-59
2022/12/26 15:44:08;;;;;;;49.75;40.08;;;;;;;;;;10316314;28;20078;-61
2022/12/26 15:49:19;;;;;;;54.83;42.47;;;;;;;;;;10317579;28;20088;-61
2022/12/26 15:54:23;;;;;;;49.13;41.03;;;;;;;;;;10316181;28;20083;-60
2022/12/26 15:59:37;;;;;;;33.87;27.83;;;;;;;;;;10299335;28;20078;-61
2022/12/26 16:04:39;;;;;;;57.90;41.47;;;;;;;;;;10314955;28;20083;-60
2022/12/26 16:09:41;;;;;;;138.70;73.38;;;;;;;;;;10314177;28;20072;-61
2022/12/26 16:14:39;;;;;;;46.85;36.10;;;;;;;;;;10315204;28;20068;-60
2022/12/26 16:19:40;;;;;;;37.45;31.60;;;;;;;;;;10316526;28;20151;-61
2022/12/26 16:24:39;;;;;;;47.30;36.10;;;;;;;;;;10315695;28;20072;-62
2022/12/26 16:29:44;;;;;;;41.90;34.40;;;;;;;;;;10313838;28;20492;-61
2022/12/26 16:34:44;;;;;;;34.92;30.48;;;;;;;;;;10311598;28;20505;-61
2022/12/26 16:39:42;;;;;;;56.53;41.15;;;;;;;;;;10295539;28;20057;-61
2022/12/26 16:44:41;;;;;;;58.80;38.97;;;;;;;;;;10315888;28;20056;-61
2022/12/26 16:49:40;;;;;;;45.75;33.53;;;;;;;;;;10313442;28;20083;-61
2022/12/26 16:54:41;;;;;;;36.53;30.13;;;;;;;;;;10298553;28;20044;-62
2022/12/26 16:59:49;;;;;;;34.70;26.70;;;;;;;;;;10314891;28;20090;-61
2022/12/26 17:04:52;;;;;;;36.75;31.80;;;;;;;;;;10316130;28;20064;-61
2022/12/26 17:09:58;;;;;;;34.10;27.67;;;;;;;;;;10315864;28;20083;-62
2022/12/26 17:14:57;;;;;;;36.38;28.35;;;;;;;;;;10316401;28;20410;-61
2022/12/26 17:19:56;;;;;;;45.42;34.03;;;;;;;;;;10316065;28;20052;-62
2022/12/26 17:25:19;;;;;;;46.35;36.03;;;;;;;;;;10315815;28;20076;-61
2022/12/26 17:30:21;;;;;;;53.58;40.20;;;;;;;;;;10315149;28;20079;-61
2022/12/26 17:35:22;;;;;;;45.58;34.75;;;;;;;;;;10315540;28;20055;-62
2022/12/26 17:40:33;;;;;;;56.50;45.10;;;;;;;;;;10315432;28;20037;-60
2022/12/26 17:45:31;;;;;;;39.83;26.63;;;;;;;;;;10315827;28;20051;-61
2022/12/26 17:50:30;;;;;;;41.28;33.45;;;;;;;;;;10314891;28;20091;-61
2022/12/26 17:55:29;;;;;;;41.67;32.47;;;;;;;;;;10314891;28;20468;-61
2022/12/26 18:00:28;;;;;;;40.40;31.60;;;;;;;;;;10315428;28;20509;-60
2022/12/26 18:05:26;;;;;;;44.22;31.50;;;;;;;;;;10315428;28;20508;-60
2022/12/26 18:10:27;;;;;;;60.47;43.03;;;;;;;;;;10316376;28;20106;-62
2022/12/26 18:15:27;;;;;;;83.88;49.20;;;;;;;;;;10322856;28;20041;-60
2022/12/26 18:20:27;;;;;;;44.22;33.20;;;;;;;;;;10321814;28;20059;-60
2022/12/26 18:25:26;;;;;;;47.83;35.22;;;;;;;;;;10321492;28;20413;-61
2022/12/26 18:30:25;;;;;;;41.97;32.78;;;;;;;;;;10321825;28;20085;-60
2022/12/26 18:35:24;;;;;;;31.55;21.98;;;;;;;;;;10322178;28;20079;-61
2022/12/26 18:40:32;;;;;;;36.65;27.83;;;;;;;;;;10321533;28;20052;-61
2022/12/26 18:45:31;;;;;;;73.57;48.40;;;;;;;;;;10321368;28;20425;-61
2022/12/26 18:50:31;;;;;;;54.25;36.50;;;;;;;;;;10320454;28;20116;-61
2022/12/26 18:55:29;;;;;;;32.63;25.63;;;;;;;;;;10321550;28;20048;-61
2022/12/26 19:00:27;;;;;;;28.50;23.33;;;;;;;;;;10320028;28;20073;-61
2022/12/26 19:05:27;;;;;;;24.73;21.77;;;;;;;;;;10321023;28;20413;-61
2022/12/26 19:10:28;;;;;;;28.50;20.20;;;;;;;;;;10320338;28;20076;-61
2022/12/26 19:15:26;;;;;;;25.98;20.65;;;;;;;;;;10320195;28;20063;-61
2022/12/26 19:20:25;;;;;;;28.88;21.77;;;;;;;;;;10320246;28;20067;-61
2022/12/26 19:25:24;;;;;;;23.98;19.00;;;;;;;;;;10319120;28;20053;-61
2022/12/26 19:30:24;;;;;;;33.00;23.17;;;;;;;;;;10319186;28;20083;-61
2022/12/26 19:35:22;;;;;;;26.88;21.38;;;;;;;;;;10301212;28;20056;-60
2022/12/26 19:40:20;;;;;;;33.50;25.00;;;;;;;;;;10319784;28;20047;-61
2022/12/26 19:45:22;;;;;;;26.10;19.40;;;;;;;;;;10318929;28;20051;-60
2022/12/26 19:50:21;;;;;;;26.35;19.70;;;;;;;;;;10319057;28;20080;-60
2022/12/26 19:55:20;;;;;;;21.00;16.45;;;;;;;;;;10318340;28;20044;-61
2022/12/26 20:00:18;;;;;;;21.38;16.92;;;;;;;;;;10317784;28;20130;-61
2022/12/26 20:05:16;;;;;;;27.95;21.58;;;;;;;;;;10317209;28;20422;-61
2022/12/26 20:10:15;;;;;;;26.73;20.60;;;;;;;;;;10299290;28;20048;-61
2022/12/26 20:15:14;;;;;;;22.63;18.75;;;;;;;;;;10318138;28;20079;-61
2022/12/26 20:20:12;;;;;;;22.10;18.83;;;;;;;;;;10317793;28;20041;-61
2022/12/26 20:25:10;;;;;;;26.38;20.40;;;;;;;;;;10317277;28;20044;-60
2022/12/26 20:30:10;;;;;;;27.98;22.88;;;;;;;;;;10317508;28;20068;-60
2022/12/26 20:35:09;;;;;;;27.70;23.00;;;;;;;;;;10317188;28;20048;-61
2022/12/26 20:40:07;;;;;;;27.25;21.85;;;;;;;;;;10316748;28;20069;-61
2022/12/26 20:45:06;;;;;;;60.10;32.38;;;;;;;;;;10317094;28;20052;-60
2022/12/26 20:50:07;;;;;;;47.25;31.77;;;;;;;;;;10317202;28;20084;-60
2022/12/26 20:55:05;;;;;;;65.55;42.30;;;;;;;;;;10316108;28;20048;-61
2022/12/26 21:00:04;;;;;;;60.75;41.78;;;;;;;;;;10308917;28;20523;-61
2022/12/26 21:05:02;;;;;;;28.10;22.77;;;;;;;;;;10307736;28;20045;-61
2022/12/26 21:10:02;;;;;;;34.03;25.95;;;;;;;;;;10307460;28;20102;-61
2022/12/26 21:15:00;;;;;;;29.90;25.15;;;;;;;;;;10315810;28;20040;-61
2022/12/26 21:19:58;;;;;;;30.83;25.17;;;;;;;;;;10315493;28;20044;-61
2022/12/26 21:24:57;;;;;;;33.15;24.88;;;;;;;;;;10315369;28;20041;-61
2022/12/26 21:29:56;;;;;;;32.33;25.38;;;;;;;;;;10313649;28;20087;-60
2022/12/26 21:34:54;;;;;;;28.92;22.08;;;;;;;;;;10312991;28;20532;-60
2022/12/26 21:39:53;;;;;;;32.05;26.10;;;;;;;;;;10301109;28;20040;-59
2022/12/26 21:44:51;;;;;;;35.22;28.55;;;;;;;;;;10296054;28;20036;-60
2022/12/26 21:49:50;;;;;;;26.25;22.00;;;;;;;;;;10321924;28;20072;-59
2022/12/26 22:00:05;;;;;;;26.13;21.40;;;;;;;;;;10322657;28;20047;-60
2022/12/26 22:05:05;;;;;;;25.40;20.67;;;;;;;;;;10315123;28;20045;-60
2022/12/26 22:10:04;;;;;;;28.05;21.05;;;;;;;;;;10314207;28;20075;-60
2022/12/26 22:15:02;;;;;;;27.00;21.00;;;;;;;;;;10322403;28;20426;-60
2022/12/26 22:20:00;;;;;;;23.45;20.00;;;;;;;;;;10322180;28;20080;-61
2022/12/26 22:25:00;;;;;;;24.63;20.50;;;;;;;;;;10322164;28;20052;-61
2022/12/26 22:29:58;;;;;;;24.75;20.65;;;;;;;;;;10322123;28;20064;-61
2022/12/26 22:34:56;;;;;;;23.27;19.52;;;;;;;;;;10321781;28;20083;-61
2022/12/26 22:39:54;;;;;;;39.67;20.08;;;;;;;;;;10321957;28;20040;-61
2022/12/26 22:44:56;;;;;;;44.60;18.70;;;;;;;;;;10321027;28;20540;-62
2022/12/26 22:49:54;;;;;;;26.65;16.50;;;;;;;;;;10320628;28;20070;-61
2022/12/26 22:54:52;;;;;;;22.52;17.20;;;;;;;;;;10303128;28;20049;-61
2022/12/26 22:59:50;;;;;;;18.55;15.50;;;;;;;;;;10321659;28;20044;-61
2022/12/26 23:05:10;;;;;;;21.08;16.48;;;;;;;;;;10321269;28;20442;-61
2022/12/26 23:10:13;;;;;;;21.50;17.20;;;;;;;;;;10320944;28;20040;-61
2022/12/26 23:15:12;;;;;;;18.38;16.48;;;;;;;;;;10320838;28;20079;-61
2022/12/26 23:25:30;;;;;;;25.50;17.73;;;;;;;;;;10319717;28;20076;-61
2022/12/26 23:30:30;;;;;;;29.88;17.67;;;;;;;;;;10320006;28;20552;-61
2022/12/26 23:35:29;;;;;;;30.33;17.65;;;;;;;;;;10319556;28;20557;-60
2022/12/26 23:40:27;;;;;;;20.92;15.98;;;;;;;;;;10318662;28;20518;-61
2022/12/26 23:45:26;;;;;;;26.60;21.27;;;;;;;;;;10319296;28;20080;-61
2022/12/26 23:50:24;;;;;;;20.52;17.67;;;;;;;;;;10319470;28;20103;-61
2022/12/26 23:55:23;;;;;;;24.00;16.80;;;;;;;;;;10318502;28;20052;-61
